UAII

Shymkent Airport

Airport
ICAO code
UAII
IATA Code
CIT
Summary
ICAO Region
APAC
ICAO Territory
Location

Shymkent,

Serving
Shymkent
Elevation
1384 ft
Coordinates
42° 21' 47" N , 69° 28' 47" E
KCC
Airport BS
Bird Strike
Airport CFIT
Altimeter Temperature Error Correction
Airport WX
Fog
Metar
Observation
UAII 300830Z 31003MPS CAVOK 24/M01 Q1014 NOSIG RMK QFE723/0965
Station
Shymkent
Date/Time
2022-09-30 08:30:00
Wind direction
310°
Lowest cloud amount
clouds and visibility OK
Temperature
24°C
Dew point
-1°C
Humidity
19%
QNH
1014 hPa
Weather condition
n/a

Description

International airport serving the city of Shymkent, Kazakhstan.

Climatology

Cold Semi-arid climate (Köppen climate classification BSk). - Hot, sometimes extremely hot summers and cold, sometimes very cold winters. Some snowfall during the winter. Areas featuring cold semi-arid climates are sometimes subject to major temperature swings during a 24 hour period.

Runways

Designator Length Width Surface Rops
10/28 2800 44 CON No/No

Airport map

Aerial View

SKYbrary Partners:

Safety knowledge contributed by: